• Join FlightAware (Why Join?)
  • Login
  • US Flag 
03:47AM EDT


 

Airport Tracker/Info


-or-


 

Live Flight TrackerFlight Track Log ✈ N2102E ✈ 25-Jul-2013 ✈ KHBI - KRDU

Flight Track Log - Related Links

Times and Time Zones

All times are in EDT time to prevent confusion due to time zone crossing. See the N2102E flight status page for this flight to view local times or setup timezone preferences in your user account.

Time Position Orientation Groundspeed Altitude Reporting Facility
EDT Latitude Longitude Course Direction KTS MPH feet Rate Location/Type
10:39PM 35.7389 -79.5892 84° East 100 115 5,500  Level Washington Center
10:40PM 35.7439 -79.5586 79° East 92 106 5,500  Level Washington Center
10:41PM 35.7489 -79.5333 76° East 94 108 5,500  Level Washington Center
10:42PM 35.7564 -79.4953 76° East 94 108 5,500  Level Washington Center
10:43PM 35.7025 -79.6612 76° East  Level Estimated
10:43PM 35.7617 -79.4675 77° East 95 109 5,500  Level Washington Center
10:44PM 35.7625 -79.4342 88° East 96 110 5,500 -60 Level Washington Center
10:45PM 35.7678 -79.4011 79° East 91 105 5,400  Descending Washington Center
10:46PM 35.7708 -79.3731 82° East 92 106 5,500 60 Climbing Washington Center
10:47PM 35.7700 -79.3372 92° East 95 109 5,600  Climbing Washington Center
10:48PM 35.7708 -79.3067 88° East 94 108 5,500 -120 Descending Washington Center
10:49PM 35.7697 -79.2733 92° East 95 109 5,400 -240 Descending Washington Center
10:50PM 35.7606 -79.2344 106° East 109 125 5,000 -420 Descending Washington Center
10:51PM 35.7511 -79.1981 108° East 108 124 4,600 -360 Descending Washington Center
10:52PM 35.7439 -79.1644 105° East 110 127 4,300 -360 Descending Washington Center
10:53PM 35.7386 -79.1286 100° East 112 129 4,000 -360 Descending Washington Center
10:54PM 35.7272 -79.0897 110° East 110 127 3,600 -360 Descending Washington Center
10:55PM 35.7242 -79.0589 97° East 109 125 3,400 -360 Descending Washington Center
10:56PM 35.7189 -79.0228 100° East 107 123 3,000 -360 Descending Washington Center
10:57PM 35.7136 -78.9867 100° East 107 123 2,700 -300 Descending Washington Center
10:58PM 35.7308 -78.9644 46° Northeast 95 109 2,400 -300 Descending Washington Center
10:59PM 35.7525 -78.9372 46° Northeast 91 105 2,100 -240 Descending Washington Center
11:00PM 35.7700 -78.9122 49° Northeast 90 104 2,000 -180 Descending Washington Center
11:01PM 35.7850 -78.8950 43° Northeast 90 104 1,800 -180 Descending Washington Center
11:02PM 35.8022 -78.8753 43° Northeast 91 105 1,700 -120 Descending Washington Center
11:03PM 35.8194 -78.8556 43° Northeast 84 97 1,600 -300 Descending Washington Center
11:04PM 35.8367 -78.8331 47° Northeast 87 100 1,100 -480 Descending Washington Center
11:05PM 35.8519 -78.8133 46° Northeast 78 90 700 -420 Descending Washington Center
11:07PM 35.8667 -78.7833 43° Northeast  Level FlightAware Approximate
11:14PM 35.8776 -78.7875 43° Northeast  Level Estimated
11:15PM 35.8776 -78.7875 43° Northeast  Level Estimated